Time;durP1;ratioP1;P1;durP2;ratioP2;P2;SDS_P1;SDS_P2;PMS_P1;PMS_P2;Temp;Humidity;BMP_temperature;BMP_pressure;BME280_temperature;BME280_humidity;BME280_pressure;Samples;Min_cycle;Max_cycle;Signal;HPM_P1;HPM_P2
2021/12/11 00:01:48;;;;;;;2.17;1.92;;;5.00;43.20;;;;;;5021743;28;20165;-48
2021/12/11 00:04:23;;;;;;;8.13;2.40;;;5.00;43.00;;;;;;5021517;28;20211;-48
2021/12/11 00:06:54;;;;;;;2.80;2.38;;;5.00;43.10;;;;;;5022217;28;20157;-48
2021/12/11 00:09:27;;;;;;;2.58;2.17;;;5.00;43.20;;;;;;5021555;28;20265;-49
2021/12/11 00:12:02;;;;;;;11.43;4.95;;;5.00;43.20;;;;;;5038706;28;20495;-49
2021/12/11 00:14:33;;;;;;;4.68;1.75;;;5.00;43.20;;;;;;5021348;28;20161;-48
2021/12/11 00:17:00;;;;;;;2.42;1.88;;;4.90;43.30;;;;;;5038582;28;20169;-48
2021/12/11 00:19:32;;;;;;;5.47;3.33;;;4.90;43.20;;;;;;5038369;28;20169;-49
2021/12/11 00:22:14;;;;;;;2.95;0.98;;;5.00;43.30;;;;;;5021337;28;20159;-49
2021/12/11 00:24:43;;;;;;;5.25;2.20;;;4.90;43.20;;;;;;5021547;28;20173;-48
2021/12/11 00:27:26;;;;;;;5.95;2.95;;;4.90;43.30;;;;;;5004843;28;20623;-49
2021/12/11 00:29:54;;;;;;;10.93;4.45;;;4.90;43.90;;;;;;5021138;28;20151;-49
2021/12/11 00:32:29;;;;;;;4.70;2.72;;;4.90;43.20;;;;;;5020694;28;20519;-48
2021/12/11 00:35:16;;;;;;;7.88;2.17;;;4.90;43.20;;;;;;5038459;28;20185;-50
2021/12/11 00:37:44;;;;;;;6.82;2.17;;;4.90;43.10;;;;;;5006275;28;20237;-48
2021/12/11 00:40:25;;;;;;;2.85;2.00;;;4.80;43.10;;;;;;5037915;28;20170;-48
2021/12/11 00:43:01;;;;;;;6.85;3.78;;;4.90;43.30;;;;;;5004972;28;20677;-48
2021/12/11 00:45:32;;;;;;;7.22;4.90;;;4.80;43.20;;;;;;4990204;28;20178;-49
2021/12/11 00:48:05;;;;;;;8.65;3.85;;;4.80;43.20;;;;;;5021073;28;20173;-48
2021/12/11 00:50:44;;;;;;;5.13;2.65;;;4.80;43.20;;;;;;5021302;28;20488;-48
2021/12/11 00:53:24;;;;;;;7.35;4.43;;;4.80;43.20;;;;;;5021826;28;20190;-49
2021/12/11 00:56:02;;;;;;;3.38;2.13;;;4.80;43.20;;;;;;5004257;28;20166;-48
2021/12/11 00:58:33;;;;;;;3.15;2.85;;;4.80;43.20;;;;;;5019699;28;20151;-48
2021/12/11 01:01:09;;;;;;;6.60;2.88;;;4.70;43.40;;;;;;5037789;28;20491;-48
2021/12/11 01:03:49;;;;;;;5.78;2.47;;;4.70;43.30;;;;;;5037601;28;20545;-48
2021/12/11 01:06:24;;;;;;;3.60;2.17;;;4.70;43.30;;;;;;5037487;28;20197;-48
2021/12/11 01:09:00;;;;;;;12.35;3.65;;;4.70;43.30;;;;;;5037882;28;20173;-48
2021/12/11 01:11:47;;;;;;;2.55;1.30;;;4.70;43.30;;;;;;5020932;28;20177;-48
2021/12/11 01:14:32;;;;;;;4.88;2.78;;;4.70;43.40;;;;;;5020252;28;20193;-48
2021/12/11 01:17:12;;;;;;;4.82;2.13;;;4.70;43.40;;;;;;4990969;28;20492;-48
2021/12/11 01:19:45;;;;;;;7.22;2.17;;;4.70;43.40;;;;;;5021426;28;20174;-48
2021/12/11 01:22:32;;;;;;;6.25;1.77;;;4.70;43.60;;;;;;5019991;28;20159;-48
2021/12/11 01:25:20;;;;;;;4.72;1.60;;;4.70;43.50;;;;;;5022005;28;20154;-48
2021/12/11 01:27:52;;;;;;;6.25;3.65;;;4.70;43.40;;;;;;5022721;28;20180;-48
2021/12/11 01:30:30;;;;;;;3.22;2.92;;;4.60;43.40;;;;;;5019757;28;20185;-48
2021/12/11 01:32:58;;;;;;;9.18;5.47;;;4.50;43.50;;;;;;5037066;28;20200;-48
2021/12/11 01:35:26;;;;;;;7.15;2.70;;;4.50;43.40;;;;;;5037032;28;20186;-48
2021/12/11 01:38:06;;;;;;;6.22;2.47;;;4.40;43.20;;;;;;5036830;28;20166;-48
2021/12/11 01:40:35;;;;;;;2.28;1.58;;;4.30;43.30;;;;;;5020968;28;20241;-48
2021/12/11 01:43:05;;;;;;;4.13;2.70;;;4.20;43.20;;;;;;5036614;28;20222;-48
2021/12/11 01:45:33;;;;;;;4.10;1.83;;;4.10;43.40;;;;;;5036834;28;20607;-49
2021/12/11 01:48:01;;;;;;;2.40;1.83;;;4.10;43.40;;;;;;5019418;28;20170;-48
2021/12/11 01:50:39;;;;;;;2.60;2.40;;;4.10;43.50;;;;;;5003266;28;20673;-48
2021/12/11 01:53:14;;;;;;;5.10;4.15;;;4.10;43.50;;;;;;5003470;28;20523;-49
2021/12/11 01:55:57;;;;;;;2.28;2.10;;;4.00;43.40;;;;;;5019105;28;20203;-48
2021/12/11 01:58:35;;;;;;;3.05;1.98;;;4.00;43.30;;;;;;5036910;28;20162;-48
2021/12/11 02:01:11;;;;;;;1.65;1.00;;;3.90;43.40;;;;;;5036503;28;20235;-48
2021/12/11 02:03:39;;;;;;;2.05;1.80;;;3.90;43.40;;;;;;5019119;28;20181;-49
2021/12/11 02:06:08;;;;;;;4.55;3.25;;;3.80;43.40;;;;;;5036345;28;20162;-48
2021/12/11 02:08:39;;;;;;;5.07;3.08;;;3.80;43.40;;;;;;5019174;28;20162;-49
2021/12/11 02:11:21;;;;;;;3.47;1.77;;;3.80;43.30;;;;;;5036271;28;20245;-48
2021/12/11 02:13:55;;;;;;;2.67;2.17;;;3.80;43.40;;;;;;5036194;28;20190;-49
2021/12/11 02:16:41;;;;;;;4.07;2.20;;;3.70;43.30;;;;;;5019023;28;20182;-49
2021/12/11 02:19:13;;;;;;;5.55;3.75;;;3.70;43.20;;;;;;4988657;28;20177;-48
2021/12/11 02:22:01;;;;;;;4.68;4.28;;;3.70;43.00;;;;;;5003159;28;20245;-49
2021/12/11 02:24:43;;;;;;;3.47;2.13;;;3.60;42.80;;;;;;5009297;28;20211;-49
2021/12/11 02:27:49;;;;;;;2.78;1.10;;;3.50;43.10;;;;;;5036108;28;20162;-48
2021/12/11 02:30:43;;;;;;;3.22;1.98;;;3.40;42.90;;;;;;5003168;28;20174;-48
2021/12/11 02:33:23;;;;;;;13.95;4.15;;;3.40;43.00;;;;;;4998228;28;20230;-49
2021/12/11 02:36:11;;;;;;;3.45;1.65;;;3.40;43.20;;;;;;5014419;28;20146;-48
2021/12/11 02:39:02;;;;;;;1.95;1.52;;;3.30;42.90;;;;;;4998366;28;20178;-49
2021/12/11 02:41:42;;;;;;;7.20;4.18;;;3.20;43.00;;;;;;5014314;28;20244;-48
2021/12/11 02:44:22;;;;;;;5.85;2.33;;;3.20;43.20;;;;;;5011072;28;20293;-48
2021/12/11 02:46:59;;;;;;;6.68;4.45;;;3.20;43.20;;;;;;5018378;28;20167;-48
2021/12/11 02:49:39;;;;;;;3.55;2.80;;;3.20;43.20;;;;;;5033933;28;20251;-48
2021/12/11 02:52:12;;;;;;;4.30;3.00;;;3.10;43.00;;;;;;5018078;28;20252;-48
2021/12/11 02:54:50;;;;;;;4.97;2.53;;;3.10;43.20;;;;;;5018007;28;20494;-48
2021/12/11 02:57:37;;;;;;;6.20;3.45;;;3.00;42.80;;;;;;5001876;28;20265;-48
2021/12/11 03:00:17;;;;;;;3.40;1.90;;;3.00;43.00;;;;;;5017552;28;20201;-49
2021/12/11 03:02:50;;;;;;;3.83;1.92;;;2.90;42.60;;;;;;5034016;28;20176;-49
2021/12/11 03:05:25;;;;;;;2.58;1.27;;;2.80;42.60;;;;;;5054326;28;20180;-48
2021/12/11 03:07:54;;;;;;;3.13;2.58;;;2.80;42.40;;;;;;5022126;28;20267;-48
2021/12/11 03:10:26;;;;;;;1.25;1.15;;;2.80;43.10;;;;;;5055195;28;20186;-49
2021/12/11 03:12:55;;;;;;;2.60;2.40;;;2.70;43.00;;;;;;5055007;28;20241;-48
2021/12/11 03:15:23;;;;;;;2.33;2.03;;;2.70;43.00;;;;;;5037456;28;20180;-48
2021/12/11 03:17:51;;;;;;;4.45;2.45;;;2.70;42.90;;;;;;5055145;28;20723;-48
2021/12/11 03:20:21;;;;;;;6.82;2.30;;;2.70;43.00;;;;;;5037690;28;20179;-48
2021/12/11 03:22:49;;;;;;;7.70;2.22;;;2.70;42.50;;;;;;5037371;28;20179;-48
2021/12/11 03:25:24;;;;;;;2.13;1.73;;;2.60;42.70;;;;;;5054894;28;20175;-48
2021/12/11 03:27:51;;;;;;;2.97;1.30;;;2.60;42.60;;;;;;5038270;28;20217;-49
2021/12/11 03:30:28;;;;;;;7.10;2.33;;;2.50;42.90;;;;;;5021534;28;20167;-49
2021/12/11 03:33:00;;;;;;;2.67;1.67;;;2.50;42.80;;;;;;5037404;28;20222;-49
2021/12/11 03:35:29;;;;;;;3.80;1.90;;;2.50;42.90;;;;;;5037642;28;20156;-48
2021/12/11 03:37:58;;;;;;;3.13;2.90;;;2.50;42.80;;;;;;5037415;28;20250;-49
2021/12/11 03:40:27;;;;;;;1.70;1.35;;;2.50;42.80;;;;;;5054864;28;20161;-48
2021/12/11 03:42:59;;;;;;;2.72;2.47;;;2.50;42.80;;;;;;5018130;28;20241;-48
2021/12/11 03:45:31;;;;;;;3.40;2.17;;;2.40;42.30;;;;;;5017671;28;20172;-49
2021/12/11 03:48:16;;;;;;;2.47;1.58;;;2.40;42.60;;;;;;5017544;28;20157;-48
2021/12/11 03:50:44;;;;;;;2.13;1.85;;;2.40;42.60;;;;;;5017822;28;20497;-48
2021/12/11 03:53:12;;;;;;;4.80;1.65;;;2.40;42.90;;;;;;5034692;28;20685;-48
2021/12/11 03:55:53;;;;;;;12.43;3.22;;;2.30;42.80;;;;;;5017830;28;20247;-48
2021/12/11 03:58:21;;;;;;;3.55;1.95;;;2.40;42.90;;;;;;5001692;28;20510;-49
2021/12/11 04:00:54;;;;;;;4.22;1.83;;;2.40;42.90;;;;;;5017611;28;20167;-49
2021/12/11 04:03:25;;;;;;;2.90;1.80;;;2.40;42.70;;;;;;5034653;28;20201;-48
2021/12/11 04:05:54;;;;;;;4.32;3.20;;;2.40;42.60;;;;;;5017941;28;20200;-48
2021/12/11 04:08:26;;;;;;;5.60;2.38;;;2.30;42.60;;;;;;5034513;28;20165;-48
2021/12/11 04:10:55;;;;;;;6.88;2.22;;;2.30;42.60;;;;;;5017590;28;20164;-48
2021/12/11 04:13:23;;;;;;;15.35;3.92;;;2.20;42.60;;;;;;5034389;28;20613;-48
2021/12/11 04:15:53;;;;;;;1.20;0.70;;;2.30;42.90;;;;;;5034492;28;20172;-48
2021/12/11 04:18:21;;;;;;;3.50;2.33;;;2.20;42.90;;;;;;5001449;28;20165;-49
2021/12/11 04:20:50;;;;;;;1.52;0.90;;;2.30;42.60;;;;;;5017238;28;20165;-49
2021/12/11 04:23:18;;;;;;;4.15;2.38;;;2.20;42.50;;;;;;4984735;28;20174;-49
2021/12/11 04:25:48;;;;;;;2.88;1.77;;;2.10;42.40;;;;;;5017665;28;20166;-49
2021/12/11 04:28:18;;;;;;;6.18;3.63;;;2.10;42.60;;;;;;5034675;28;20165;-49
2021/12/11 04:30:51;;;;;;;5.30;0.85;;;2.20;42.90;;;;;;5000845;28;20192;-49
2021/12/11 04:33:19;;;;;;;4.65;3.15;;;2.10;42.90;;;;;;5001375;28;20197;-48
2021/12/11 04:35:48;;;;;;;4.13;1.70;;;2.10;43.00;;;;;;5037815;28;20590;-48
2021/12/11 04:38:18;;;;;;;4.65;2.22;;;2.20;42.60;;;;;;5021228;28;20165;-48
2021/12/11 04:40:52;;;;;;;5.78;1.63;;;2.10;42.50;;;;;;5020888;28;20180;-49
2021/12/11 04:43:22;;;;;;;4.40;3.58;;;2.10;42.70;;;;;;5037695;28;20604;-48
2021/12/11 04:46:04;;;;;;;5.95;3.05;;;2.10;42.70;;;;;;5037986;28;20184;-48
2021/12/11 04:49:16;;;;;;;5.35;1.85;;;2.10;42.60;;;;;;5020601;28;20608;-48
2021/12/11 04:52:06;;;;;;;2.08;1.42;;;2.10;42.40;;;;;;5037824;28;20191;-48
2021/12/11 05:00:08;;;;;;;3.60;1.95;;;2.00;42.50;;;;;;5005963;28;20170;-48
2021/12/11 05:11:04;;;;;;;3.00;2.70;;;1.90;42.20;;;;;;5037407;28;20168;-48
2021/12/11 05:13:33;;;;;;;3.30;2.13;;;1.80;42.20;;;;;;5022505;28;20195;-48
2021/12/11 05:16:05;;;;;;;4.53;2.13;;;1.80;43.20;;;;;;5037274;28;20155;-48
2021/12/11 05:18:35;;;;;;;4.35;1.33;;;1.80;42.30;;;;;;5020280;28;20251;-48
2021/12/11 05:21:10;;;;;;;6.30;2.53;;;1.80;42.20;;;;;;5037080;28;20246;-48
2021/12/11 05:23:38;;;;;;;3.88;1.00;;;1.70;42.20;;;;;;5020144;28;20648;-48
2021/12/11 05:26:06;;;;;;;2.63;2.20;;;1.70;42.10;;;;;;5003838;28;20175;-48
2021/12/11 05:28:34;;;;;;;5.07;2.33;;;1.70;42.40;;;;;;5037032;28;20484;-49
2021/12/11 05:31:06;;;;;;;7.45;3.22;;;1.70;42.40;;;;;;5037121;28;20179;-49
2021/12/11 05:33:34;;;;;;;8.25;2.53;;;1.70;42.50;;;;;;5036928;28;20264;-48
2021/12/11 05:36:02;;;;;;;5.57;2.92;;;1.70;42.30;;;;;;5037079;28;20164;-48
2021/12/11 05:38:29;;;;;;;2.25;1.85;;;1.70;42.30;;;;;;5019769;28;20176;-48
2021/12/11 05:41:01;;;;;;;1.40;0.70;;;1.80;42.30;;;;;;5019573;28;20258;-48
2021/12/11 05:43:28;;;;;;;1.95;1.65;;;1.70;42.30;;;;;;5036899;28;20599;-48
2021/12/11 05:45:56;;;;;;;1.10;0.60;;;1.70;42.30;;;;;;5036516;28;20226;-48
2021/12/11 05:48:24;;;;;;;4.13;1.75;;;1.70;42.30;;;;;;5036690;28;20482;-48
2021/12/11 05:50:57;;;;;;;2.42;2.22;;;1.70;42.30;;;;;;5019517;28;20252;-48
2021/12/11 05:53:25;;;;;;;3.47;1.83;;;1.70;41.90;;;;;;5019253;28;20188;-48
2021/12/11 05:55:54;;;;;;;16.45;4.03;;;1.60;41.80;;;;;;5019575;28;20589;-49
2021/12/11 06:01:24;;;;;;;5.03;3.95;;;1.60;42.10;;;;;;5006488;28;20258;-49
2021/12/11 06:03:52;;;;;;;2.05;1.20;;;1.60;41.90;;;;;;5002737;28;20190;-48
2021/12/11 06:06:20;;;;;;;5.38;4.05;;;1.50;41.50;;;;;;5003438;28;20611;-48
2021/12/11 06:08:47;;;;;;;2.00;1.50;;;1.50;41.90;;;;;;5036341;28;20221;-49
2021/12/11 06:11:16;;;;;;;5.63;1.63;;;1.40;41.80;;;;;;5018977;28;20224;-49
2021/12/11 06:13:44;;;;;;;6.35;3.30;;;1.50;42.00;;;;;;5003072;28;20669;-47
2021/12/11 06:16:11;;;;;;;2.63;2.10;;;1.40;42.10;;;;;;5036406;28;20211;-48
2021/12/11 06:18:39;;;;;;;2.80;1.88;;;1.50;41.90;;;;;;5019043;28;20165;-48
2021/12/11 06:21:07;;;;;;;3.83;2.75;;;1.40;42.00;;;;;;5018784;28;20240;-47
2021/12/11 06:23:34;;;;;;;4.50;3.20;;;1.40;42.80;;;;;;5018967;28;20162;-48
2021/12/11 06:26:02;;;;;;;4.30;1.58;;;1.40;41.90;;;;;;5018851;28;20175;-49
2021/12/11 06:28:29;;;;;;;6.13;3.88;;;1.40;41.90;;;;;;5036145;28;20593;-50
2021/12/11 06:30:58;;;;;;;4.45;1.35;;;1.40;41.80;;;;;;5002472;28;20170;-48
2021/12/11 06:33:26;;;;;;;6.13;1.92;;;1.40;41.90;;;;;;5035698;28;20203;-48
2021/12/11 06:36:08;;;;;;;1.33;0.77;;;1.40;41.90;;;;;;5035801;28;20168;-48
2021/12/11 06:38:38;;;;;;;7.00;2.80;;;1.40;42.50;;;;;;5018959;28;20172;-48
2021/12/11 06:41:09;;;;;;;4.60;2.47;;;1.30;41.90;;;;;;5018460;28;20162;-48
2021/12/11 06:43:36;;;;;;;2.67;1.23;;;1.30;42.00;;;;;;5031461;28;20556;-48
2021/12/11 06:46:05;;;;;;;2.58;2.30;;;1.30;41.90;;;;;;5054683;28;20182;-48
2021/12/11 06:48:32;;;;;;;1.70;1.35;;;1.30;41.90;;;;;;5054704;28;20500;-48
2021/12/11 06:51:01;;;;;;;2.67;1.80;;;1.30;42.20;;;;;;5055442;28;20173;-48
2021/12/11 06:53:50;;;;;;;5.68;3.97;;;1.30;42.10;;;;;;5054953;28;20561;-48
2021/12/11 06:56:20;;;;;;;3.10;1.23;;;1.30;42.10;;;;;;5054117;28;20243;-48
2021/12/11 06:58:47;;;;;;;1.58;1.15;;;1.30;41.90;;;;;;5055102;28;20160;-48
2021/12/11 07:01:15;;;;;;;2.83;2.53;;;1.30;41.90;;;;;;5054521;28;20193;-48
2021/12/11 07:03:44;;;;;;;2.58;1.88;;;1.30;41.90;;;;;;5055313;28;20608;-48
2021/12/11 07:06:12;;;;;;;3.13;2.83;;;1.20;41.60;;;;;;5038225;28;20188;-48
2021/12/11 07:08:40;;;;;;;14.35;3.13;;;1.20;41.90;;;;;;5055397;28;20165;-48
2021/12/11 07:11:10;;;;;;;1.40;1.13;;;1.20;41.80;;;;;;5055138;28;20643;-48
2021/12/11 07:13:40;;;;;;;4.55;4.10;;;1.20;41.90;;;;;;5054121;28;20197;-48
2021/12/11 07:16:07;;;;;;;6.55;2.70;;;1.20;41.90;;;;;;5054317;28;20171;-49
2021/12/11 07:18:35;;;;;;;2.00;1.40;;;1.20;42.00;;;;;;5054582;28;20173;-48
2021/12/11 07:21:05;;;;;;;5.15;2.47;;;1.20;41.70;;;;;;5054991;28;20184;-48
2021/12/11 07:23:33;;;;;;;1.88;1.30;;;1.30;42.00;;;;;;5054042;28;20168;-48
2021/12/11 07:26:12;;;;;;;3.90;2.53;;;1.30;42.00;;;;;;5054001;28;20173;-49
2021/12/11 07:28:45;;;;;;;3.70;1.20;;;1.30;42.00;;;;;;5053912;28;20596;-48
2021/12/11 07:31:13;;;;;;;2.30;1.65;;;1.30;41.90;;;;;;5055130;28;20604;-48
2021/12/11 07:33:41;;;;;;;6.10;2.35;;;1.30;42.00;;;;;;5053864;28;20199;-49
2021/12/11 07:36:09;;;;;;;5.60;2.83;;;1.30;42.10;;;;;;5055226;28;20525;-49
2021/12/11 07:38:37;;;;;;;4.43;2.85;;;1.40;42.10;;;;;;5053883;28;20228;-48
2021/12/11 07:41:09;;;;;;;1.55;0.93;;;1.50;42.20;;;;;;5054090;28;20300;-49
2021/12/11 07:43:38;;;;;;;7.38;2.40;;;1.60;42.30;;;;;;5053640;28;20221;-48
2021/12/11 07:46:07;;;;;;;5.18;2.75;;;1.60;42.20;;;;;;5053796;28;20177;-48
2021/12/11 07:48:35;;;;;;;5.80;3.92;;;1.70;42.10;;;;;;5053961;28;20174;-48
2021/12/11 07:51:04;;;;;;;3.15;1.92;;;1.70;42.10;;;;;;5054468;28;20174;-48
2021/12/11 07:53:32;;;;;;;10.40;6.78;;;1.80;42.10;;;;;;5037172;28;20646;-48
2021/12/11 07:56:00;;;;;;;2.85;2.38;;;1.90;42.10;;;;;;5054430;28;20169;-48
2021/12/11 07:58:31;;;;;;;26.75;2.40;;;1.90;42.10;;;;;;5054048;28;20625;-48
2021/12/11 08:00:59;;;;;;;2.75;2.03;;;1.90;42.00;;;;;;5021787;28;20202;-49
2021/12/11 08:03:27;;;;;;;10.27;3.00;;;2.00;42.10;;;;;;5053649;28;20549;-48
2021/12/11 08:05:55;;;;;;;10.35;3.60;;;2.00;42.20;;;;;;5037403;28;20273;-48
2021/12/11 08:08:23;;;;;;;2.03;1.52;;;2.10;42.20;;;;;;5055842;28;20179;-49
2021/12/11 08:10:54;;;;;;;13.85;3.47;;;2.10;42.30;;;;;;5058476;28;20176;-48
2021/12/11 08:13:22;;;;;;;2.28;1.95;;;2.10;42.30;;;;;;5057439;28;20199;-47
2021/12/11 08:15:50;;;;;;;5.00;2.25;;;2.20;42.20;;;;;;5059102;28;20166;-49
2021/12/11 08:18:20;;;;;;;9.40;2.38;;;2.30;42.00;;;;;;5057408;28;20201;-48
2021/12/11 08:20:48;;;;;;;5.47;2.63;;;2.30;42.10;;;;;;5058419;28;20165;-48
2021/12/11 08:23:16;;;;;;;4.43;1.60;;;2.40;42.40;;;;;;5057623;28;20169;-49
2021/12/11 08:25:46;;;;;;;6.75;2.95;;;2.40;42.50;;;;;;5057432;28;20179;-49
2021/12/11 08:28:19;;;;;;;5.05;2.10;;;2.50;42.60;;;;;;5041131;28;20163;-48
2021/12/11 08:30:49;;;;;;;3.63;3.22;;;2.50;42.40;;;;;;5057286;28;20164;-49
2021/12/11 08:33:16;;;;;;;5.40;2.97;;;2.60;42.50;;;;;;5057026;28;20206;-50
2021/12/11 08:35:45;;;;;;;4.80;1.75;;;2.60;42.60;;;;;;5057244;28;20609;-48
2021/12/11 08:38:12;;;;;;;4.25;3.95;;;2.70;42.70;;;;;;5058448;28;20608;-48
2021/12/11 08:40:44;;;;;;;4.97;4.00;;;2.70;42.70;;;;;;5057033;28;20178;-48
2021/12/11 08:43:14;;;;;;;7.07;3.67;;;2.80;42.80;;;;;;5056783;28;20651;-48
2021/12/11 08:45:56;;;;;;;8.80;3.47;;;2.80;42.80;;;;;;5056948;28;20167;-48
2021/12/11 08:48:25;;;;;;;7.28;2.22;;;2.90;43.00;;;;;;5057726;28;20153;-48
2021/12/11 08:51:01;;;;;;;5.57;3.67;;;3.00;43.20;;;;;;5058311;28;20514;-48
2021/12/11 08:53:29;;;;;;;5.68;3.20;;;3.10;43.20;;;;;;5040111;28;20198;-49
2021/12/11 08:55:57;;;;;;;18.80;5.30;;;3.20;43.20;;;;;;5040145;28;20176;-48
2021/12/11 08:58:26;;;;;;;6.75;3.28;;;3.20;43.20;;;;;;5057659;28;20166;-49
2021/12/11 09:01:19;;;;;;;7.60;2.70;;;3.30;43.60;;;;;;5056519;28;20184;-48
2021/12/11 09:03:59;;;;;;;5.75;4.18;;;3.40;43.50;;;;;;5056673;28;20187;-48
2021/12/11 09:06:42;;;;;;;6.85;4.32;;;3.40;43.50;;;;;;5056652;28;20612;-48
2021/12/11 09:09:09;;;;;;;11.82;5.85;;;3.50;43.60;;;;;;5057546;28;20246;-48
2021/12/11 09:11:45;;;;;;;6.50;3.40;;;3.60;43.50;;;;;;5057778;28;20171;-48
2021/12/11 09:14:38;;;;;;;10.55;3.33;;;3.60;43.60;;;;;;5056371;28;20652;-48
2021/12/11 09:17:26;;;;;;;7.70;4.38;;;3.70;43.60;;;;;;5041793;28;20149;-48
2021/12/11 09:20:03;;;;;;;11.00;7.63;;;3.80;43.60;;;;;;5056632;28;20601;-48
2021/12/11 09:22:54;;;;;;;14.73;6.30;;;3.80;43.50;;;;;;5056717;28;20164;-48
2021/12/11 09:25:32;;;;;;;6.32;4.75;;;3.90;43.50;;;;;;5039588;28;20165;-48
2021/12/11 09:28:13;;;;;;;5.20;2.55;;;4.00;43.40;;;;;;5057030;28;20150;-48
2021/12/11 09:30:52;;;;;;;4.15;3.80;;;4.10;43.40;;;;;;5057135;28;20201;-48
2021/12/11 09:33:25;;;;;;;5.68;2.25;;;4.10;43.40;;;;;;5057102;28;20577;-48
2021/12/11 09:35:58;;;;;;;15.60;5.38;;;4.20;43.30;;;;;;5057184;28;20165;-48
2021/12/11 09:38:36;;;;;;;10.07;6.35;;;4.30;43.30;;;;;;5056985;28;20194;-49
2021/12/11 09:41:21;;;;;;;3.38;2.30;;;4.40;43.30;;;;;;5056800;28;20168;-48
2021/12/11 09:44:03;;;;;;;4.18;3.47;;;4.70;43.20;;;;;;5055443;28;20217;-48
2021/12/11 09:46:36;;;;;;;6.00;5.40;;;5.40;43.00;;;;;;5055971;28;20230;-49
2021/12/11 09:49:07;;;;;;;4.25;3.30;;;6.00;42.00;;;;;;5039984;28;20542;-49
2021/12/11 09:51:40;;;;;;;17.02;7.40;;;6.30;41.70;;;;;;5056174;28;20617;-49
2021/12/11 09:54:19;;;;;;;11.13;7.15;;;6.50;41.80;;;;;;5055614;28;20689;-49
2021/12/11 09:56:52;;;;;;;9.27;6.28;;;6.70;41.80;;;;;;5056945;28;20591;-49
2021/12/11 09:59:23;;;;;;;10.82;7.05;;;7.00;41.40;;;;;;5039783;28;20709;-49
2021/12/11 10:01:56;;;;;;;7.22;5.38;;;7.40;40.40;;;;;;5055545;28;20599;-49
2021/12/11 10:04:33;;;;;;;13.60;6.25;;;7.80;39.60;;;;;;5055335;28;20173;-49
2021/12/11 10:09:44;;;;;;;8.05;5.65;;;8.60;38.50;;;;;;5055404;28;20153;-49
2021/12/11 10:12:22;;;;;;;10.57;9.00;;;8.90;37.80;;;;;;5040216;28;20161;-49
2021/12/11 10:15:13;;;;;;;7.60;5.35;;;9.10;37.40;;;;;;5056176;28;20240;-49
2021/12/11 10:17:51;;;;;;;9.57;4.72;;;9.40;35.90;;;;;;5056361;28;20460;-49
2021/12/11 10:20:35;;;;;;;8.40;7.50;;;9.90;34.20;;;;;;5040024;28;20158;-49
2021/12/11 10:23:06;;;;;;;6.20;5.00;;;10.20;34.00;;;;;;5056294;28;20315;-49
2021/12/11 10:25:37;;;;;;;9.55;7.10;;;10.60;34.00;;;;;;5038860;28;20158;-49
2021/12/11 10:28:09;;;;;;;12.07;7.32;;;11.10;32.40;;;;;;5039019;28;20234;-49
2021/12/11 10:30:45;;;;;;;10.18;5.75;;;11.40;32.70;;;;;;5055966;28;20169;-49
2021/12/11 10:33:17;;;;;;;8.25;5.82;;;12.00;32.30;;;;;;5055101;28;20196;-49
2021/12/11 10:35:56;;;;;;;13.43;6.82;;;12.40;30.90;;;;;;5055143;28;20583;-49
2021/12/11 10:38:24;;;;;;;8.65;5.18;;;12.60;30.50;;;;;;5054801;28;20180;-49
2021/12/11 10:41:00;;;;;;;9.13;4.28;;;12.80;30.40;;;;;;5055725;28;20595;-49
2021/12/11 10:43:53;;;;;;;10.90;5.68;;;13.00;29.60;;;;;;5038880;28;20585;-49
2021/12/11 10:46:24;;;;;;;9.15;4.95;;;13.10;30.00;;;;;;5054546;28;20176;-49
2021/12/11 10:48:53;;;;;;;5.40;4.57;;;12.90;29.90;;;;;;5055526;28;20173;-49
2021/12/11 10:51:32;;;;;;;6.40;3.38;;;12.90;30.30;;;;;;5054585;28;20165;-49
2021/12/11 10:54:01;;;;;;;7.15;5.95;;;12.90;30.30;;;;;;5055278;28;20188;-49
2021/12/11 10:56:29;;;;;;;11.88;6.40;;;12.60;30.60;;;;;;5055597;28;20168;-49
2021/12/11 10:59:02;;;;;;;10.23;4.40;;;12.30;30.80;;;;;;5054682;28;20244;-49
2021/12/11 11:01:42;;;;;;;11.65;6.18;;;12.00;30.90;;;;;;5055273;28;20610;-49
2021/12/11 11:04:32;;;;;;;6.00;4.20;;;11.60;31.40;;;;;;5038953;28;20176;-49
2021/12/11 11:07:01;;;;;;;11.38;6.55;;;11.30;31.80;;;;;;5054551;28;20167;-48
2021/12/11 11:09:29;;;;;;;15.80;8.90;;;10.90;31.30;;;;;;5055447;28;20483;-48
2021/12/11 11:11:59;;;;;;;14.48;8.30;;;10.60;32.70;;;;;;5055121;28;20173;-48
2021/12/11 11:14:27;;;;;;;6.43;5.22;;;10.30;32.60;;;;;;5037879;28;20190;-48
2021/12/11 11:16:59;;;;;;;4.55;3.92;;;10.00;33.70;;;;;;5055167;28;20258;-49
2021/12/11 11:19:29;;;;;;;12.13;8.07;;;9.70;33.60;;;;;;5054653;28;20591;-48
2021/12/11 11:22:02;;;;;;;9.63;5.13;;;9.40;33.90;;;;;;5037501;28;20183;-48
2021/12/11 11:24:35;;;;;;;5.38;4.85;;;9.10;34.70;;;;;;5054222;28;20158;-48
2021/12/11 11:27:03;;;;;;;4.97;3.30;;;8.80;35.20;;;;;;5054059;28;20186;-48
2021/12/11 11:29:31;;;;;;;7.07;4.43;;;8.50;35.50;;;;;;5055036;28;20167;-48
2021/12/11 11:32:04;;;;;;;4.60;3.35;;;8.30;36.20;;;;;;5037570;28;20257;-48
2021/12/11 11:34:31;;;;;;;6.57;4.57;;;8.00;36.60;;;;;;5054163;28;20205;-48
2021/12/11 11:37:02;;;;;;;3.47;3.15;;;7.80;37.10;;;;;;5053837;28;20506;-48
2021/12/11 11:39:30;;;;;;;11.25;6.13;;;7.70;37.40;;;;;;5053737;28;20193;-48
2021/12/11 11:42:01;;;;;;;6.97;3.45;;;7.40;37.50;;;;;;5020906;28;20182;-49
2021/12/11 11:44:30;;;;;;;9.55;4.75;;;7.20;37.90;;;;;;5053208;28;20601;-48
2021/12/11 11:46:59;;;;;;;7.00;3.28;;;7.10;38.20;;;;;;5054569;28;20234;-49
2021/12/11 11:49:28;;;;;;;9.18;4.53;;;7.10;38.60;;;;;;5054874;28;20158;-49
2021/12/11 11:52:05;;;;;;;7.88;4.03;;;7.00;38.80;;;;;;5054955;28;20222;-49
2021/12/11 11:54:33;;;;;;;12.10;4.22;;;6.90;39.00;;;;;;5053850;28;20559;-49
2021/12/11 11:57:18;;;;;;;19.50;10.10;;;6.90;39.10;;;;;;5037229;28;20256;-48
2021/12/11 11:59:47;;;;;;;5.68;3.92;;;7.00;39.10;;;;;;5054576;28;20146;-48
2021/12/11 12:02:19;;;;;;;8.90;3.83;;;7.00;39.10;;;;;;5054510;28;20523;-48
2021/12/11 12:04:48;;;;;;;8.70;4.97;;;7.10;39.30;;;;;;5054832;28;20185;-48
2021/12/11 12:07:18;;;;;;;6.75;4.40;;;7.20;39.50;;;;;;5037476;28;20177;-48
2021/12/11 12:09:49;;;;;;;10.20;6.32;;;7.40;39.50;;;;;;5053756;28;20685;-48
2021/12/11 12:12:17;;;;;;;5.07;2.60;;;7.50;39.30;;;;;;5053643;28;20184;-49
2021/12/11 12:14:46;;;;;;;6.07;4.07;;;7.40;38.80;;;;;;5037084;28;20265;-49
2021/12/11 12:17:16;;;;;;;11.95;4.68;;;7.50;39.10;;;;;;5053494;28;20158;-48
2021/12/11 12:19:43;;;;;;;6.85;4.45;;;7.40;38.80;;;;;;5053689;28;20169;-48
2021/12/11 12:22:13;;;;;;;9.32;3.92;;;7.30;39.00;;;;;;5054382;28;20176;-49
2021/12/11 12:24:45;;;;;;;6.78;4.45;;;7.20;39.10;;;;;;5054285;28;20180;-48
2021/12/11 12:27:18;;;;;;;5.63;3.47;;;7.10;39.30;;;;;;5053398;28;20172;-49
2021/12/11 12:29:48;;;;;;;6.80;3.33;;;7.10;39.50;;;;;;5037710;28;20191;-48
2021/12/11 12:32:22;;;;;;;12.50;4.28;;;7.00;39.60;;;;;;5054182;28;20231;-48
2021/12/11 12:34:52;;;;;;;7.47;5.20;;;7.10;39.70;;;;;;5037319;28;20209;-48
2021/12/11 12:37:21;;;;;;;8.75;3.78;;;7.40;40.00;;;;;;5054409;28;20488;-48
2021/12/11 12:39:52;;;;;;;9.43;4.65;;;7.50;39.80;;;;;;5053312;28;20611;-48
2021/12/11 12:42:35;;;;;;;8.07;5.20;;;7.70;39.70;;;;;;5037235;28;20176;-49
2021/12/11 12:45:22;;;;;;;7.03;4.03;;;8.10;39.90;;;;;;5053261;28;20596;-48
2021/12/11 12:47:59;;;;;;;6.93;5.05;;;8.20;39.10;;;;;;5054103;28;20165;-49
2021/12/11 12:50:35;;;;;;;14.73;6.28;;;8.20;39.00;;;;;;5054378;28;20256;-48
2021/12/11 12:53:04;;;;;;;6.97;3.90;;;8.10;39.00;;;;;;5037510;28;20575;-48
2021/12/11 12:55:37;;;;;;;12.40;6.50;;;8.10;38.90;;;;;;5055620;28;20251;-48
2021/12/11 12:58:10;;;;;;;7.97;4.45;;;8.90;39.10;;;;;;5057006;28;20636;-49
2021/12/11 13:00:53;;;;;;;10.70;4.97;;;9.60;38.60;;;;;;5040833;28;20591;-48
2021/12/11 13:03:24;;;;;;;12.70;6.82;;;10.10;38.00;;;;;;5057698;28;20166;-48
2021/12/11 13:05:58;;;;;;;6.65;4.70;;;10.30;37.50;;;;;;5056566;28;20170;-48
2021/12/11 13:08:35;;;;;;;10.65;6.75;;;10.30;37.00;;;;;;5057057;28;20201;-49
2021/12/11 13:11:13;;;;;;;9.52;5.53;;;10.20;36.70;;;;;;5057674;28;20173;-48
2021/12/11 13:13:42;;;;;;;8.45;4.30;;;10.00;35.70;;;;;;5057405;28;20229;-48
2021/12/11 13:16:17;;;;;;;6.05;5.28;;;9.80;36.10;;;;;;5040089;28;20163;-48
2021/12/11 13:18:52;;;;;;;12.55;6.50;;;9.50;36.30;;;;;;5056198;28;20621;-48
2021/12/11 13:21:27;;;;;;;5.90;4.22;;;9.20;36.40;;;;;;5040664;28;20166;-48
2021/12/11 13:23:59;;;;;;;10.20;6.78;;;9.00;37.00;;;;;;5056648;28;20153;-48
2021/12/11 13:26:30;;;;;;;7.55;5.07;;;8.80;37.20;;;;;;5057297;28;20166;-48
2021/12/11 13:29:01;;;;;;;13.38;6.90;;;8.60;37.40;;;;;;5056680;28;20545;-48
2021/12/11 13:31:42;;;;;;;11.80;5.40;;;8.40;37.80;;;;;;5056968;28;20172;-49
2021/12/11 13:34:10;;;;;;;9.77;4.68;;;8.30;38.10;;;;;;5040315;28;20514;-49
2021/12/11 13:36:38;;;;;;;6.50;4.82;;;8.10;38.40;;;;;;5057287;28;20185;-48
2021/12/11 13:39:08;;;;;;;5.63;3.53;;;8.00;38.60;;;;;;5056938;28;20216;-48
2021/12/11 13:41:41;;;;;;;6.72;3.83;;;7.80;38.70;;;;;;5039624;28;20260;-49
2021/12/11 13:44:09;;;;;;;14.90;6.90;;;7.80;38.90;;;;;;5044520;28;20719;-48
2021/12/11 13:46:38;;;;;;;5.57;3.70;;;7.60;39.20;;;;;;5019627;28;20174;-48